Terminal Aerodrome Forecast
Issued by NWS

Home | Current Version | Previous Version | Text Only | Print | Product List | Glossary On
Versions: 1 2 3 4 5 6 7 8 9 10 11 12 13 14 15 16 17 18 19 20
000
FTUS43 KDTX 240521
TAFYIP
TAF
KYIP 240521Z 2406/2506 VRB03KT P6SM BKN200
     FM241400 23006KT P6SM SCT040 BKN060 OVC120
     FM241700 22007KT P6SM BKN045 BKN150
     FM250200 23005KT P6SM BKN022=

USA.gov is the U.S. government's official web portal to all federal, state and local government web resources and services.